sensor_id;sensor_type;location;lat;lon;timestamp;temperature;humidity
19805;DHT22;10062;51.052;13.756;2022-07-10T00:01:12;16.00;1.00
19805;DHT22;10062;51.052;13.756;2022-07-10T00:03:43;16.10;1.00
19805;DHT22;10062;51.052;13.756;2022-07-10T00:06:15;16.00;1.00
19805;DHT22;10062;51.052;13.756;2022-07-10T00:08:47;16.10;1.00
19805;DHT22;10062;51.052;13.756;2022-07-10T00:11:19;16.10;1.00
19805;DHT22;10062;51.052;13.756;2022-07-10T00:13:51;16.00;1.00
19805;DHT22;10062;51.052;13.756;2022-07-10T00:16:23;16.00;1.00
19805;DHT22;10062;51.052;13.756;2022-07-10T00:18:55;16.00;1.00
19805;DHT22;10062;51.052;13.756;2022-07-10T00:21:27;15.90;1.00
19805;DHT22;10062;51.052;13.756;2022-07-10T00:23:58;15.80;1.00
19805;DHT22;10062;51.052;13.756;2022-07-10T00:26:30;15.70;1.00
19805;DHT22;10062;51.052;13.756;2022-07-10T00:29:03;15.80;1.00
19805;DHT22;10062;51.052;13.756;2022-07-10T00:31:35;15.70;1.00
19805;DHT22;10062;51.052;13.756;2022-07-10T00:34:06;15.60;1.00
19805;DHT22;10062;51.052;13.756;2022-07-10T00:36:38;15.60;1.00
19805;DHT22;10062;51.052;13.756;2022-07-10T00:39:10;15.40;1.00
19805;DHT22;10062;51.052;13.756;2022-07-10T00:41:41;15.40;1.00
19805;DHT22;10062;51.052;13.756;2022-07-10T00:44:14;15.40;1.00
19805;DHT22;10062;51.052;13.756;2022-07-10T00:46:46;15.40;1.00
19805;DHT22;10062;51.052;13.756;2022-07-10T00:49:18;15.40;1.00
19805;DHT22;10062;51.052;13.756;2022-07-10T00:51:50;15.40;1.00
19805;DHT22;10062;51.052;13.756;2022-07-10T00:54:22;15.40;1.00
19805;DHT22;10062;51.052;13.756;2022-07-10T00:56:53;15.50;1.00
19805;DHT22;10062;51.052;13.756;2022-07-10T00:59:27;15.60;1.00
19805;DHT22;10062;51.052;13.756;2022-07-10T01:02:00;15.60;1.00
19805;DHT22;10062;51.052;13.756;2022-07-10T01:04:32;15.50;1.00
19805;DHT22;10062;51.052;13.756;2022-07-10T01:07:04;15.60;1.00
19805;DHT22;10062;51.052;13.756;2022-07-10T01:09:37;15.70;1.00
19805;DHT22;10062;51.052;13.756;2022-07-10T01:12:10;15.60;1.00
19805;DHT22;10062;51.052;13.756;2022-07-10T01:14:43;15.40;1.00
19805;DHT22;10062;51.052;13.756;2022-07-10T01:17:16;15.50;1.00
19805;DHT22;10062;51.052;13.756;2022-07-10T01:19:48;15.60;1.00
19805;DHT22;10062;51.052;13.756;2022-07-10T01:22:21;15.50;1.00
19805;DHT22;10062;51.052;13.756;2022-07-10T01:24:52;15.70;1.00
19805;DHT22;10062;51.052;13.756;2022-07-10T01:27:25;15.70;1.00
19805;DHT22;10062;51.052;13.756;2022-07-10T01:29:57;15.70;1.00
19805;DHT22;10062;51.052;13.756;2022-07-10T01:32:36;15.70;1.00
19805;DHT22;10062;51.052;13.756;2022-07-10T01:35:09;15.70;1.00
19805;DHT22;10062;51.052;13.756;2022-07-10T01:37:42;15.70;1.00
19805;DHT22;10062;51.052;13.756;2022-07-10T01:40:13;15.60;1.00
19805;DHT22;10062;51.052;13.756;2022-07-10T01:42:46;15.60;1.00
19805;DHT22;10062;51.052;13.756;2022-07-10T01:45:17;15.60;1.00
19805;DHT22;10062;51.052;13.756;2022-07-10T01:47:49;15.60;99.90
19805;DHT22;10062;51.052;13.756;2022-07-10T01:50:21;15.70;1.00
19805;DHT22;10062;51.052;13.756;2022-07-10T01:52:54;15.80;1.00
19805;DHT22;10062;51.052;13.756;2022-07-10T01:55:25;15.80;1.00
19805;DHT22;10062;51.052;13.756;2022-07-10T01:57:57;15.80;79.90
19805;DHT22;10062;51.052;13.756;2022-07-10T02:00:31;15.70;1.00
19805;DHT22;10062;51.052;13.756;2022-07-10T02:03:03;15.60;1.00
19805;DHT22;10062;51.052;13.756;2022-07-10T02:05:52;15.60;99.90
19805;DHT22;10062;51.052;13.756;2022-07-10T02:08:25;15.50;1.00
19805;DHT22;10062;51.052;13.756;2022-07-10T02:10:57;15.50;99.90
19805;DHT22;10062;51.052;13.756;2022-07-10T02:13:29;15.50;1.00
19805;DHT22;10062;51.052;13.756;2022-07-10T02:16:00;15.50;1.00
19805;DHT22;10062;51.052;13.756;2022-07-10T02:18:32;15.50;1.00
19805;DHT22;10062;51.052;13.756;2022-07-10T02:21:05;15.50;99.90
19805;DHT22;10062;51.052;13.756;2022-07-10T02:23:38;14.20;99.90
19805;DHT22;10062;51.052;13.756;2022-07-10T02:26:11;15.50;99.90
19805;DHT22;10062;51.052;13.756;2022-07-10T02:28:42;15.50;99.90
19805;DHT22;10062;51.052;13.756;2022-07-10T02:31:14;15.50;59.50
19805;DHT22;10062;51.052;13.756;2022-07-10T02:33:46;15.50;99.90
19805;DHT22;10062;51.052;13.756;2022-07-10T02:36:18;15.40;99.90
19805;DHT22;10062;51.052;13.756;2022-07-10T02:38:51;15.40;1.00
19805;DHT22;10062;51.052;13.756;2022-07-10T02:41:22;15.30;1.00
19805;DHT22;10062;51.052;13.756;2022-07-10T02:43:54;15.20;1.00
19805;DHT22;10062;51.052;13.756;2022-07-10T02:46:27;15.20;1.00
19805;DHT22;10062;51.052;13.756;2022-07-10T02:48:58;15.30;1.00
19805;DHT22;10062;51.052;13.756;2022-07-10T02:51:30;15.30;1.00
19805;DHT22;10062;51.052;13.756;2022-07-10T02:54:03;15.20;1.00
19805;DHT22;10062;51.052;13.756;2022-07-10T02:56:35;15.20;1.00
19805;DHT22;10062;51.052;13.756;2022-07-10T02:59:07;15.20;1.00
19805;DHT22;10062;51.052;13.756;2022-07-10T03:01:39;15.00;1.00
19805;DHT22;10062;51.052;13.756;2022-07-10T03:04:11;15.10;1.00
19805;DHT22;10062;51.052;13.756;2022-07-10T03:06:43;15.10;9.90
19805;DHT22;10062;51.052;13.756;2022-07-10T03:09:16;15.00;99.90
19805;DHT22;10062;51.052;13.756;2022-07-10T03:11:47;15.00;1.00
19805;DHT22;10062;51.052;13.756;2022-07-10T03:14:19;15.00;99.90
19805;DHT22;10062;51.052;13.756;2022-07-10T03:16:51;15.00;1.00
19805;DHT22;10062;51.052;13.756;2022-07-10T03:19:23;15.00;99.90
19805;DHT22;10062;51.052;13.756;2022-07-10T03:21:54;15.10;1.00
19805;DHT22;10062;51.052;13.756;2022-07-10T03:24:27;15.10;1.00
19805;DHT22;10062;51.052;13.756;2022-07-10T03:26:59;15.10;1.00
19805;DHT22;10062;51.052;13.756;2022-07-10T03:29:31;14.90;1.00
19805;DHT22;10062;51.052;13.756;2022-07-10T03:32:03;15.10;1.00
19805;DHT22;10062;51.052;13.756;2022-07-10T03:34:35;15.00;1.00
19805;DHT22;10062;51.052;13.756;2022-07-10T03:37:07;15.00;1.00
19805;DHT22;10062;51.052;13.756;2022-07-10T03:39:40;15.00;1.00
19805;DHT22;10062;51.052;13.756;2022-07-10T03:42:12;14.90;65.00
19805;DHT22;10062;51.052;13.756;2022-07-10T03:44:44;14.90;99.90
19805;DHT22;10062;51.052;13.756;2022-07-10T03:47:15;14.80;99.90
19805;DHT22;10062;51.052;13.756;2022-07-10T03:49:47;14.80;21.40
19805;DHT22;10062;51.052;13.756;2022-07-10T03:52:20;14.90;90.10
19805;DHT22;10062;51.052;13.756;2022-07-10T03:54:54;14.90;99.90
19805;DHT22;10062;51.052;13.756;2022-07-10T03:57:26;14.90;78.00
19805;DHT22;10062;51.052;13.756;2022-07-10T04:00:15;16.50;99.90
19805;DHT22;10062;51.052;13.756;2022-07-10T04:02:47;15.00;1.00
19805;DHT22;10062;51.052;13.756;2022-07-10T04:05:19;14.90;99.90
19805;DHT22;10062;51.052;13.756;2022-07-10T04:07:51;15.00;1.00
19805;DHT22;10062;51.052;13.756;2022-07-10T04:10:24;14.90;41.30
19805;DHT22;10062;51.052;13.756;2022-07-10T04:12:56;14.80;99.90
19805;DHT22;10062;51.052;13.756;2022-07-10T04:15:28;14.80;99.90
19805;DHT22;10062;51.052;13.756;2022-07-10T04:18:00;14.80;99.90
19805;DHT22;10062;51.052;13.756;2022-07-10T04:20:32;15.00;99.90
19805;DHT22;10062;51.052;13.756;2022-07-10T04:23:03;14.90;1.00
19805;DHT22;10062;51.052;13.756;2022-07-10T04:25:37;14.80;2.30
19805;DHT22;10062;51.052;13.756;2022-07-10T04:28:08;14.90;1.00
19805;DHT22;10062;51.052;13.756;2022-07-10T04:30:40;14.80;99.90
19805;DHT22;10062;51.052;13.756;2022-07-10T04:33:12;14.80;99.90
19805;DHT22;10062;51.052;13.756;2022-07-10T04:35:43;14.90;99.90
19805;DHT22;10062;51.052;13.756;2022-07-10T04:38:15;14.90;1.00
19805;DHT22;10062;51.052;13.756;2022-07-10T04:40:48;14.80;38.40
19805;DHT22;10062;51.052;13.756;2022-07-10T04:43:20;15.00;1.00
19805;DHT22;10062;51.052;13.756;2022-07-10T04:45:51;15.00;1.00
19805;DHT22;10062;51.052;13.756;2022-07-10T04:48:23;15.00;41.70
19805;DHT22;10062;51.052;13.756;2022-07-10T04:50:55;15.00;1.00
19805;DHT22;10062;51.052;13.756;2022-07-10T04:53:26;15.00;1.00
19805;DHT22;10062;51.052;13.756;2022-07-10T04:55:59;15.10;1.00
19805;DHT22;10062;51.052;13.756;2022-07-10T04:58:32;15.20;1.00
19805;DHT22;10062;51.052;13.756;2022-07-10T05:01:04;15.10;1.00
19805;DHT22;10062;51.052;13.756;2022-07-10T05:03:36;15.10;1.00
19805;DHT22;10062;51.052;13.756;2022-07-10T05:06:07;15.20;1.00
19805;DHT22;10062;51.052;13.756;2022-07-10T05:08:39;15.30;1.00
19805;DHT22;10062;51.052;13.756;2022-07-10T05:11:12;15.30;1.00
19805;DHT22;10062;51.052;13.756;2022-07-10T05:13:44;15.30;99.90
19805;DHT22;10062;51.052;13.756;2022-07-10T05:16:19;15.50;1.00
19805;DHT22;10062;51.052;13.756;2022-07-10T05:18:50;15.40;1.00
19805;DHT22;10062;51.052;13.756;2022-07-10T05:21:22;15.40;1.00
19805;DHT22;10062;51.052;13.756;2022-07-10T05:23:55;15.40;1.00
19805;DHT22;10062;51.052;13.756;2022-07-10T05:26:28;15.40;1.00
19805;DHT22;10062;51.052;13.756;2022-07-10T05:29:00;15.40;1.00
19805;DHT22;10062;51.052;13.756;2022-07-10T05:31:32;15.30;1.00
19805;DHT22;10062;51.052;13.756;2022-07-10T05:34:03;15.10;1.00
19805;DHT22;10062;51.052;13.756;2022-07-10T05:36:36;15.20;1.00
19805;DHT22;10062;51.052;13.756;2022-07-10T05:39:07;15.30;1.00
19805;DHT22;10062;51.052;13.756;2022-07-10T05:41:40;15.30;14.60
19805;DHT22;10062;51.052;13.756;2022-07-10T05:44:12;15.40;1.00
19805;DHT22;10062;51.052;13.756;2022-07-10T05:46:44;15.20;1.00
19805;DHT22;10062;51.052;13.756;2022-07-10T05:49:16;15.20;1.00
19805;DHT22;10062;51.052;13.756;2022-07-10T05:51:47;15.20;1.00
19805;DHT22;10062;51.052;13.756;2022-07-10T05:54:19;15.20;1.00
19805;DHT22;10062;51.052;13.756;2022-07-10T05:56:52;15.20;1.00
19805;DHT22;10062;51.052;13.756;2022-07-10T05:59:23;15.30;1.00
19805;DHT22;10062;51.052;13.756;2022-07-10T06:01:55;15.30;99.90
19805;DHT22;10062;51.052;13.756;2022-07-10T06:04:27;15.40;99.90
19805;DHT22;10062;51.052;13.756;2022-07-10T06:06:59;15.30;16.10
19805;DHT22;10062;51.052;13.756;2022-07-10T06:09:30;15.40;1.00
19805;DHT22;10062;51.052;13.756;2022-07-10T06:12:04;15.40;41.40
19805;DHT22;10062;51.052;13.756;2022-07-10T06:14:36;15.50;42.90
19805;DHT22;10062;51.052;13.756;2022-07-10T06:17:08;15.50;99.90
19805;DHT22;10062;51.052;13.756;2022-07-10T06:19:39;15.80;85.60
19805;DHT22;10062;51.052;13.756;2022-07-10T06:22:11;15.80;1.80
19805;DHT22;10062;51.052;13.756;2022-07-10T06:25:04;15.90;1.90
19805;DHT22;10062;51.052;13.756;2022-07-10T06:27:37;16.10;61.10
19805;DHT22;10062;51.052;13.756;2022-07-10T06:30:09;16.20;1.00
19805;DHT22;10062;51.052;13.756;2022-07-10T06:32:41;16.20;1.00
19805;DHT22;10062;51.052;13.756;2022-07-10T06:35:14;16.20;1.00
19805;DHT22;10062;51.052;13.756;2022-07-10T06:37:46;16.20;1.00
19805;DHT22;10062;51.052;13.756;2022-07-10T06:40:20;16.30;1.00
19805;DHT22;10062;51.052;13.756;2022-07-10T06:42:53;16.30;1.00
19805;DHT22;10062;51.052;13.756;2022-07-10T06:45:25;16.30;1.00
19805;DHT22;10062;51.052;13.756;2022-07-10T06:47:56;16.10;99.90
19805;DHT22;10062;51.052;13.756;2022-07-10T06:50:30;16.30;1.00
19805;DHT22;10062;51.052;13.756;2022-07-10T06:53:03;16.30;1.00
19805;DHT22;10062;51.052;13.756;2022-07-10T06:55:34;16.30;99.90
19805;DHT22;10062;51.052;13.756;2022-07-10T06:58:08;16.30;1.00
19805;DHT22;10062;51.052;13.756;2022-07-10T07:00:39;16.30;1.00
19805;DHT22;10062;51.052;13.756;2022-07-10T07:03:11;16.10;1.00
19805;DHT22;10062;51.052;13.756;2022-07-10T07:05:42;16.00;1.00
19805;DHT22;10062;51.052;13.756;2022-07-10T07:08:14;16.00;1.00
19805;DHT22;10062;51.052;13.756;2022-07-10T07:10:46;16.10;1.00
19805;DHT22;10062;51.052;13.756;2022-07-10T07:13:19;15.80;1.00
19805;DHT22;10062;51.052;13.756;2022-07-10T07:15:51;15.50;1.00
19805;DHT22;10062;51.052;13.756;2022-07-10T07:18:29;15.60;1.00
19805;DHT22;10062;51.052;13.756;2022-07-10T07:21:03;15.70;1.00
19805;DHT22;10062;51.052;13.756;2022-07-10T07:23:55;15.60;1.00
19805;DHT22;10062;51.052;13.756;2022-07-10T07:26:27;15.80;99.90
19805;DHT22;10062;51.052;13.756;2022-07-10T07:29:00;16.10;1.00
19805;DHT22;10062;51.052;13.756;2022-07-10T07:31:31;16.20;99.90
19805;DHT22;10062;51.052;13.756;2022-07-10T07:34:03;16.40;99.90
19805;DHT22;10062;51.052;13.756;2022-07-10T07:36:36;16.60;99.90
19805;DHT22;10062;51.052;13.756;2022-07-10T07:39:08;16.80;1.00
19805;DHT22;10062;51.052;13.756;2022-07-10T07:41:40;16.80;1.00
19805;DHT22;10062;51.052;13.756;2022-07-10T07:44:12;17.20;1.00
19805;DHT22;10062;51.052;13.756;2022-07-10T07:46:46;17.40;1.00
19805;DHT22;10062;51.052;13.756;2022-07-10T07:49:18;17.80;99.90
19805;DHT22;10062;51.052;13.756;2022-07-10T07:51:49;17.90;99.90
19805;DHT22;10062;51.052;13.756;2022-07-10T07:54:21;18.10;1.00
19805;DHT22;10062;51.052;13.756;2022-07-10T07:56:53;18.20;99.90
19805;DHT22;10062;51.052;13.756;2022-07-10T07:59:26;18.20;22.70
19805;DHT22;10062;51.052;13.756;2022-07-10T08:01:57;18.20;1.00
19805;DHT22;10062;51.052;13.756;2022-07-10T08:04:29;18.20;1.00
19805;DHT22;10062;51.052;13.756;2022-07-10T08:07:01;18.20;1.00
19805;DHT22;10062;51.052;13.756;2022-07-10T08:09:32;18.50;1.00
19805;DHT22;10062;51.052;13.756;2022-07-10T08:12:05;18.50;99.90
19805;DHT22;10062;51.052;13.756;2022-07-10T08:14:38;18.60;99.90
19805;DHT22;10062;51.052;13.756;2022-07-10T08:17:10;18.70;99.90
19805;DHT22;10062;51.052;13.756;2022-07-10T08:19:42;18.80;99.90
19805;DHT22;10062;51.052;13.756;2022-07-10T08:22:13;19.10;99.90
19805;DHT22;10062;51.052;13.756;2022-07-10T08:24:45;19.00;1.00
19805;DHT22;10062;51.052;13.756;2022-07-10T08:27:17;19.20;99.90
19805;DHT22;10062;51.052;13.756;2022-07-10T08:29:50;18.90;85.00
19805;DHT22;10062;51.052;13.756;2022-07-10T08:32:21;18.60;70.60
19805;DHT22;10062;51.052;13.756;2022-07-10T08:34:53;18.70;99.90
19805;DHT22;10062;51.052;13.756;2022-07-10T08:37:25;18.80;99.90
19805;DHT22;10062;51.052;13.756;2022-07-10T08:39:57;19.20;1.00
19805;DHT22;10062;51.052;13.756;2022-07-10T08:42:32;19.50;1.00
19805;DHT22;10062;51.052;13.756;2022-07-10T08:45:06;19.70;1.00
19805;DHT22;10062;51.052;13.756;2022-07-10T08:47:39;19.80;21.10
19805;DHT22;10062;51.052;13.756;2022-07-10T08:50:17;19.60;93.20
19805;DHT22;10062;51.052;13.756;2022-07-10T08:52:57;19.40;1.00
19805;DHT22;10062;51.052;13.756;2022-07-10T08:55:30;18.90;1.00
19805;DHT22;10062;51.052;13.756;2022-07-10T08:58:02;18.60;86.30
19805;DHT22;10062;51.052;13.756;2022-07-10T09:00:36;18.40;99.90
19805;DHT22;10062;51.052;13.756;2022-07-10T09:03:08;17.60;1.00
19805;DHT22;10062;51.052;13.756;2022-07-10T09:05:39;17.40;1.00
19805;DHT22;10062;51.052;13.756;2022-07-10T09:08:23;17.10;1.00
19805;DHT22;10062;51.052;13.756;2022-07-10T09:11:12;16.90;1.00
19805;DHT22;10062;51.052;13.756;2022-07-10T09:13:51;16.80;1.00
19805;DHT22;10062;51.052;13.756;2022-07-10T09:16:25;17.00;1.00
19805;DHT22;10062;51.052;13.756;2022-07-10T09:18:57;17.20;1.00
19805;DHT22;10062;51.052;13.756;2022-07-10T09:21:46;17.50;47.50
19805;DHT22;10062;51.052;13.756;2022-07-10T09:24:19;17.60;1.00
19805;DHT22;10062;51.052;13.756;2022-07-10T09:26:58;17.50;1.00
19805;DHT22;10062;51.052;13.756;2022-07-10T09:29:45;17.50;99.90
19805;DHT22;10062;51.052;13.756;2022-07-10T09:32:18;17.70;99.90
19805;DHT22;10062;51.052;13.756;2022-07-10T09:34:51;18.10;99.90
19805;DHT22;10062;51.052;13.756;2022-07-10T09:37:43;18.50;1.00
19805;DHT22;10062;51.052;13.756;2022-07-10T09:40:15;18.80;99.90
19805;DHT22;10062;51.052;13.756;2022-07-10T09:42:46;18.50;1.00
19805;DHT22;10062;51.052;13.756;2022-07-10T09:45:19;18.20;1.00
19805;DHT22;10062;51.052;13.756;2022-07-10T09:47:56;17.90;1.00
19805;DHT22;10062;51.052;13.756;2022-07-10T09:50:30;17.80;1.00
19805;DHT22;10062;51.052;13.756;2022-07-10T09:53:05;17.90;99.90
19805;DHT22;10062;51.052;13.756;2022-07-10T09:55:37;17.90;1.00
19805;DHT22;10062;51.052;13.756;2022-07-10T09:58:09;18.00;1.00
19805;DHT22;10062;51.052;13.756;2022-07-10T10:00:41;17.90;1.00
19805;DHT22;10062;51.052;13.756;2022-07-10T10:03:17;18.00;99.90
19805;DHT22;10062;51.052;13.756;2022-07-10T10:05:53;18.20;99.90
19805;DHT22;10062;51.052;13.756;2022-07-10T10:08:27;18.40;99.90
19805;DHT22;10062;51.052;13.756;2022-07-10T10:10:59;18.60;92.40
19805;DHT22;10062;51.052;13.756;2022-07-10T10:13:34;18.90;1.00
19805;DHT22;10062;51.052;13.756;2022-07-10T10:16:06;19.80;1.00
19805;DHT22;10062;51.052;13.756;2022-07-10T10:18:42;20.60;99.90
19805;DHT22;10062;51.052;13.756;2022-07-10T10:21:28;20.70;48.30
19805;DHT22;10062;51.052;13.756;2022-07-10T10:24:01;20.80;1.00
19805;DHT22;10062;51.052;13.756;2022-07-10T10:26:33;20.40;1.00
19805;DHT22;10062;51.052;13.756;2022-07-10T10:29:05;20.10;1.00
19805;DHT22;10062;51.052;13.756;2022-07-10T10:31:38;20.00;1.00
19805;DHT22;10062;51.052;13.756;2022-07-10T10:34:12;19.30;1.00
19805;DHT22;10062;51.052;13.756;2022-07-10T10:36:47;19.00;99.90
19805;DHT22;10062;51.052;13.756;2022-07-10T10:39:19;18.90;99.90
19805;DHT22;10062;51.052;13.756;2022-07-10T10:41:52;19.20;99.90
19805;DHT22;10062;51.052;13.756;2022-07-10T10:44:28;19.20;99.90
19805;DHT22;10062;51.052;13.756;2022-07-10T10:47:06;19.20;99.90
19805;DHT22;10062;51.052;13.756;2022-07-10T10:49:51;18.80;99.90
19805;DHT22;10062;51.052;13.756;2022-07-10T10:52:22;18.70;99.90
19805;DHT22;10062;51.052;13.756;2022-07-10T10:55:05;18.60;99.90
19805;DHT22;10062;51.052;13.756;2022-07-10T10:57:43;18.50;99.90
19805;DHT22;10062;51.052;13.756;2022-07-10T11:00:33;18.50;99.90
19805;DHT22;10062;51.052;13.756;2022-07-10T11:03:15;18.80;99.90
19805;DHT22;10062;51.052;13.756;2022-07-10T11:05:50;19.00;99.90
19805;DHT22;10062;51.052;13.756;2022-07-10T11:08:41;19.30;99.90
19805;DHT22;10062;51.052;13.756;2022-07-10T11:11:36;19.10;99.90
19805;DHT22;10062;51.052;13.756;2022-07-10T11:14:09;19.00;99.90
19805;DHT22;10062;51.052;13.756;2022-07-10T11:16:47;18.70;99.90
19805;DHT22;10062;51.052;13.756;2022-07-10T11:19:24;18.70;99.90
19805;DHT22;10062;51.052;13.756;2022-07-10T11:22:36;18.60;99.90
19805;DHT22;10062;51.052;13.756;2022-07-10T11:25:37;18.50;99.90
19805;DHT22;10062;51.052;13.756;2022-07-10T11:28:13;18.50;1.00
19805;DHT22;10062;51.052;13.756;2022-07-10T11:30:50;18.60;1.00
19805;DHT22;10062;51.052;13.756;2022-07-10T11:33:22;18.50;1.00
19805;DHT22;10062;51.052;13.756;2022-07-10T11:35:54;18.70;1.00
19805;DHT22;10062;51.052;13.756;2022-07-10T11:38:27;18.60;99.90
19805;DHT22;10062;51.052;13.756;2022-07-10T11:40:59;18.80;1.00
19805;DHT22;10062;51.052;13.756;2022-07-10T11:43:31;19.10;99.90
19805;DHT22;10062;51.052;13.756;2022-07-10T11:46:02;19.30;99.90
19805;DHT22;10062;51.052;13.756;2022-07-10T11:48:38;19.40;99.90
19805;DHT22;10062;51.052;13.756;2022-07-10T11:51:17;19.90;99.90
19805;DHT22;10062;51.052;13.756;2022-07-10T11:53:55;20.70;99.90
19805;DHT22;10062;51.052;13.756;2022-07-10T11:56:29;21.10;99.90
19805;DHT22;10062;51.052;13.756;2022-07-10T11:59:04;21.00;35.50
19805;DHT22;10062;51.052;13.756;2022-07-10T12:01:41;20.90;7.50
19805;DHT22;10062;51.052;13.756;2022-07-10T12:04:15;20.80;1.00
19805;DHT22;10062;51.052;13.756;2022-07-10T12:06:48;20.60;1.00
19805;DHT22;10062;51.052;13.756;2022-07-10T12:09:23;20.40;1.00
19805;DHT22;10062;51.052;13.756;2022-07-10T12:11:59;20.30;1.00
19805;DHT22;10062;51.052;13.756;2022-07-10T12:14:31;19.60;21.90
19805;DHT22;10062;51.052;13.756;2022-07-10T12:17:10;19.20;99.90
19805;DHT22;10062;51.052;13.756;2022-07-10T12:19:43;19.00;99.90
19805;DHT22;10062;51.052;13.756;2022-07-10T12:22:16;18.60;99.90
19805;DHT22;10062;51.052;13.756;2022-07-10T12:24:49;18.30;99.90
19805;DHT22;10062;51.052;13.756;2022-07-10T12:27:40;18.30;1.00
19805;DHT22;10062;51.052;13.756;2022-07-10T12:30:12;18.20;99.90
19805;DHT22;10062;51.052;13.756;2022-07-10T12:32:44;18.10;99.90
19805;DHT22;10062;51.052;13.756;2022-07-10T12:35:16;18.00;99.90
19805;DHT22;10062;51.052;13.756;2022-07-10T12:37:50;17.90;99.90
19805;DHT22;10062;51.052;13.756;2022-07-10T12:40:33;18.10;99.90
19805;DHT22;10062;51.052;13.756;2022-07-10T12:43:05;18.30;1.00
19805;DHT22;10062;51.052;13.756;2022-07-10T12:45:38;18.40;99.90
19805;DHT22;10062;51.052;13.756;2022-07-10T12:48:21;18.50;99.90
19805;DHT22;10062;51.052;13.756;2022-07-10T12:50:53;18.40;99.90
19805;DHT22;10062;51.052;13.756;2022-07-10T12:53:25;18.50;99.90
19805;DHT22;10062;51.052;13.756;2022-07-10T12:55:58;18.70;99.90
19805;DHT22;10062;51.052;13.756;2022-07-10T12:58:29;18.90;99.90
19805;DHT22;10062;51.052;13.756;2022-07-10T13:01:01;19.10;99.90
19805;DHT22;10062;51.052;13.756;2022-07-10T13:03:33;19.20;99.90
19805;DHT22;10062;51.052;13.756;2022-07-10T13:06:05;19.30;99.90
19805;DHT22;10062;51.052;13.756;2022-07-10T13:08:44;19.30;99.90
19805;DHT22;10062;51.052;13.756;2022-07-10T13:11:18;19.40;99.90
19805;DHT22;10062;51.052;13.756;2022-07-10T13:13:50;19.70;99.90
19805;DHT22;10062;51.052;13.756;2022-07-10T13:16:22;19.80;99.90
19805;DHT22;10062;51.052;13.756;2022-07-10T13:18:54;20.20;99.90
19805;DHT22;10062;51.052;13.756;2022-07-10T13:21:26;20.60;99.90
19805;DHT22;10062;51.052;13.756;2022-07-10T13:23:58;20.80;45.00
19805;DHT22;10062;51.052;13.756;2022-07-10T13:26:31;20.70;1.00
19805;DHT22;10062;51.052;13.756;2022-07-10T13:29:03;20.60;1.00
19805;DHT22;10062;51.052;13.756;2022-07-10T13:31:35;20.50;1.00
19805;DHT22;10062;51.052;13.756;2022-07-10T13:34:07;20.60;1.00
19805;DHT22;10062;51.052;13.756;2022-07-10T13:36:38;20.60;1.00
19805;DHT22;10062;51.052;13.756;2022-07-10T13:39:10;20.80;1.00
19805;DHT22;10062;51.052;13.756;2022-07-10T13:41:43;20.50;1.00
19805;DHT22;10062;51.052;13.756;2022-07-10T13:44:15;20.60;1.00
19805;DHT22;10062;51.052;13.756;2022-07-10T13:46:46;20.70;1.00
19805;DHT22;10062;51.052;13.756;2022-07-10T13:49:18;20.50;1.00
19805;DHT22;10062;51.052;13.756;2022-07-10T13:51:50;20.20;1.00
19805;DHT22;10062;51.052;13.756;2022-07-10T13:54:22;20.20;1.00
19805;DHT22;10062;51.052;13.756;2022-07-10T13:56:55;20.10;1.00
19805;DHT22;10062;51.052;13.756;2022-07-10T13:59:26;20.00;1.00
19805;DHT22;10062;51.052;13.756;2022-07-10T14:01:58;20.10;1.00
19805;DHT22;10062;51.052;13.756;2022-07-10T14:04:30;19.90;1.00
19805;DHT22;10062;51.052;13.756;2022-07-10T14:07:02;19.70;1.00
19805;DHT22;10062;51.052;13.756;2022-07-10T14:09:33;19.60;1.00
19805;DHT22;10062;51.052;13.756;2022-07-10T14:12:07;19.50;1.00
19805;DHT22;10062;51.052;13.756;2022-07-10T14:14:39;19.40;1.00
19805;DHT22;10062;51.052;13.756;2022-07-10T14:17:11;19.30;1.00
19805;DHT22;10062;51.052;13.756;2022-07-10T14:19:42;19.50;1.00
19805;DHT22;10062;51.052;13.756;2022-07-10T14:22:14;19.50;1.00
19805;DHT22;10062;51.052;13.756;2022-07-10T14:24:46;19.80;1.00
19805;DHT22;10062;51.052;13.756;2022-07-10T14:27:19;19.80;1.00
19805;DHT22;10062;51.052;13.756;2022-07-10T14:29:51;19.90;4.90
19805;DHT22;10062;51.052;13.756;2022-07-10T14:32:23;19.90;1.00
19805;DHT22;10062;51.052;13.756;2022-07-10T14:34:55;20.00;21.30
19805;DHT22;10062;51.052;13.756;2022-07-10T14:37:27;20.20;1.00
19805;DHT22;10062;51.052;13.756;2022-07-10T14:39:58;20.30;1.00
19805;DHT22;10062;51.052;13.756;2022-07-10T14:42:31;20.30;1.00
19805;DHT22;10062;51.052;13.756;2022-07-10T14:45:04;20.20;4.40
19805;DHT22;10062;51.052;13.756;2022-07-10T14:47:35;20.20;12.20
19805;DHT22;10062;51.052;13.756;2022-07-10T14:50:08;20.00;1.00
19805;DHT22;10062;51.052;13.756;2022-07-10T14:52:39;19.90;1.00
19805;DHT22;10062;51.052;13.756;2022-07-10T14:55:11;19.80;1.00
19805;DHT22;10062;51.052;13.756;2022-07-10T14:57:44;19.70;1.00
19805;DHT22;10062;51.052;13.756;2022-07-10T15:00:18;19.70;22.20
19805;DHT22;10062;51.052;13.756;2022-07-10T15:02:50;19.80;1.00
19805;DHT22;10062;51.052;13.756;2022-07-10T15:05:22;19.70;1.00
19805;DHT22;10062;51.052;13.756;2022-07-10T15:07:53;19.70;1.00
19805;DHT22;10062;51.052;13.756;2022-07-10T15:10:25;19.70;1.00
19805;DHT22;10062;51.052;13.756;2022-07-10T15:12:58;19.70;1.00
19805;DHT22;10062;51.052;13.756;2022-07-10T15:15:30;19.80;1.00
19805;DHT22;10062;51.052;13.756;2022-07-10T15:18:02;19.90;1.00
19805;DHT22;10062;51.052;13.756;2022-07-10T15:20:34;19.90;1.00
19805;DHT22;10062;51.052;13.756;2022-07-10T15:23:07;19.80;1.00
19805;DHT22;10062;51.052;13.756;2022-07-10T15:25:39;19.80;1.00
19805;DHT22;10062;51.052;13.756;2022-07-10T15:28:12;19.70;1.00
19805;DHT22;10062;51.052;13.756;2022-07-10T15:30:43;19.70;1.00
19805;DHT22;10062;51.052;13.756;2022-07-10T15:33:15;19.70;1.00
19805;DHT22;10062;51.052;13.756;2022-07-10T15:35:47;19.70;1.00
19805;DHT22;10062;51.052;13.756;2022-07-10T15:38:18;19.90;1.90
19805;DHT22;10062;51.052;13.756;2022-07-10T15:40:50;20.10;36.20
19805;DHT22;10062;51.052;13.756;2022-07-10T15:43:23;20.30;1.00
19805;DHT22;10062;51.052;13.756;2022-07-10T15:45:55;20.40;1.00
19805;DHT22;10062;51.052;13.756;2022-07-10T15:48:27;20.40;1.00
19805;DHT22;10062;51.052;13.756;2022-07-10T15:50:59;20.30;1.00
19805;DHT22;10062;51.052;13.756;2022-07-10T15:53:30;20.10;1.00
19805;DHT22;10062;51.052;13.756;2022-07-10T15:56:02;19.90;1.00
19805;DHT22;10062;51.052;13.756;2022-07-10T15:58:35;20.00;1.00
19805;DHT22;10062;51.052;13.756;2022-07-10T16:01:07;20.00;1.00
19805;DHT22;10062;51.052;13.756;2022-07-10T16:03:40;20.00;1.00